createdAt,value
2022-09-28T00:02:01.632Z,5.07
2022-09-28T00:04:30.712Z,4.65
2022-09-28T00:06:59.931Z,5.18
2022-09-28T00:09:30.512Z,3.97
2022-09-28T00:11:59.794Z,4.30
2022-09-28T00:14:29.065Z,4.03
2022-09-28T00:16:58.341Z,4.10
2022-09-28T00:19:27.446Z,4.22
2022-09-28T00:21:56.734Z,3.80
2022-09-28T00:24:27.786Z,3.72
2022-09-28T00:27:01.436Z,4.18
2022-09-28T00:29:32.360Z,4.30
2022-09-28T00:32:03.518Z,4.15
2022-09-28T00:34:36.343Z,3.67
2022-09-28T00:37:08.859Z,4.50
2022-09-28T00:39:38.772Z,4.13
2022-09-28T00:42:15.642Z,4.40
2022-09-28T00:44:48.707Z,7.68
2022-09-28T00:47:31.274Z,6.10
2022-09-28T00:50:04.276Z,4.50
2022-09-28T00:52:37.221Z,4.32
2022-09-28T00:55:09.922Z,4.97
2022-09-28T00:57:44.429Z,4.53
2022-09-28T01:00:14.795Z,4.50
2022-09-28T01:02:44.798Z,4.18
2022-09-28T01:05:15.322Z,5.88
2022-09-28T01:07:45.523Z,5.40
2022-09-28T01:10:15.501Z,5.47
2022-09-28T01:12:46.081Z,4.80
2022-09-28T01:15:16.669Z,4.40
2022-09-28T01:18:09.262Z,3.88
2022-09-28T01:20:57.375Z,3.40
2022-09-28T01:24:04.318Z,2.90
2022-09-28T01:26:54.767Z,2.45
2022-09-28T01:29:37.239Z,2.92
2022-09-28T01:32:22.347Z,3.40
2022-09-28T01:34:59.140Z,3.13
2022-09-28T01:37:37.396Z,3.00
2022-09-28T01:40:08.854Z,3.10
2022-09-28T01:42:42.513Z,3.20
2022-09-28T01:45:29.195Z,2.67
2022-09-28T01:48:03.258Z,2.53
2022-09-28T01:50:37.265Z,2.78
2022-09-28T01:53:13.138Z,3.10
2022-09-28T01:55:46.231Z,2.65
2022-09-28T01:58:26.138Z,2.30
2022-09-28T02:01:00.939Z,2.08
2022-09-28T02:03:36.587Z,2.50
2022-09-28T02:06:10.745Z,2.50
2022-09-28T02:08:45.205Z,2.85
2022-09-28T02:11:16.302Z,2.70
2022-09-28T02:13:50.886Z,3.22
2022-09-28T02:16:24.202Z,3.10
2022-09-28T02:18:53.757Z,2.67
2022-09-28T02:21:28.718Z,3.22
2022-09-28T02:24:02.692Z,2.90
2022-09-28T02:26:36.156Z,2.90
2022-09-28T02:29:06.934Z,3.45
2022-09-28T02:36:34.329Z,3.40
2022-09-28T02:39:03.670Z,3.22
2022-09-28T02:41:43.974Z,3.15
2022-09-28T02:44:30.671Z,3.40
2022-09-28T02:47:05.701Z,3.95
2022-09-28T02:49:49.308Z,3.33
2022-09-28T02:52:37.978Z,3.22
2022-09-28T02:55:20.343Z,3.53
2022-09-28T02:58:04.822Z,4.38
2022-09-28T03:00:42.313Z,4.90
2022-09-28T03:03:19.530Z,4.25
2022-09-28T03:05:58.515Z,4.63
2022-09-28T03:08:34.604Z,4.75
2022-09-28T03:11:08.728Z,4.40
2022-09-28T03:13:39.361Z,4.88
2022-09-28T03:16:15.988Z,5.05
2022-09-28T03:18:47.768Z,4.28
2022-09-28T03:21:18.020Z,4.60
2022-09-28T03:23:48.005Z,4.95
2022-09-28T03:26:19.999Z,4.70
2022-09-28T03:28:49.348Z,5.80
2022-09-28T03:31:26.001Z,5.53
2022-09-28T03:33:55.717Z,5.00
2022-09-28T03:36:25.003Z,5.13
2022-09-28T03:38:55.147Z,5.75
2022-09-28T03:41:27.769Z,4.95
2022-09-28T03:43:57.070Z,5.30
2022-09-28T03:46:29.841Z,5.80
2022-09-28T03:49:04.579Z,5.88
2022-09-28T03:51:33.895Z,5.60
2022-09-28T03:54:03.226Z,6.07
2022-09-28T03:56:33.198Z,6.47
2022-09-28T03:59:03.829Z,5.80
2022-09-28T04:01:34.930Z,5.60
2022-09-28T04:04:04.282Z,6.38
2022-09-28T04:06:33.443Z,6.22
2022-09-28T04:09:02.860Z,5.75
2022-09-28T04:11:47.546Z,6.28
2022-09-28T04:14:17.506Z,6.25
2022-09-28T04:16:48.709Z,6.15
2022-09-28T04:19:18.884Z,7.25
2022-09-28T04:22:07.398Z,5.85
2022-09-28T04:24:36.853Z,7.05
2022-09-28T04:27:23.372Z,7.07
2022-09-28T04:29:52.977Z,6.88
2022-09-28T04:32:23.514Z,7.00
2022-09-28T04:34:53.839Z,6.28
2022-09-28T04:37:23.435Z,7.03
2022-09-28T04:39:52.963Z,7.82
2022-09-28T04:42:22.381Z,7.25
2022-09-28T04:44:52.773Z,6.85
2022-09-28T04:47:23.540Z,7.65
2022-09-28T04:49:52.956Z,6.85
2022-09-28T04:52:28.292Z,7.32
2022-09-28T04:54:57.502Z,8.20
2022-09-28T04:57:27.778Z,7.28
2022-09-28T04:59:57.071Z,7.07
2022-09-28T05:02:29.532Z,7.57
2022-09-28T05:05:17.901Z,6.95
2022-09-28T05:08:00.218Z,7.35
2022-09-28T05:10:29.813Z,7.20
2022-09-28T05:12:59.164Z,7.45
2022-09-28T05:15:28.809Z,6.65
2022-09-28T05:17:59.595Z,6.45
2022-09-28T05:20:42.804Z,6.70
2022-09-28T05:23:13.019Z,6.35
2022-09-28T05:25:45.519Z,7.18
2022-09-28T05:28:30.072Z,6.90
2022-09-28T05:31:18.084Z,5.90
2022-09-28T05:34:11.338Z,6.88
2022-09-28T05:36:42.801Z,6.43
2022-09-28T05:39:11.931Z,5.90
2022-09-28T05:41:42.092Z,5.88
2022-09-28T05:44:11.560Z,5.03
2022-09-28T05:46:40.578Z,6.18
2022-09-28T05:49:14.213Z,4.78
2022-09-28T05:51:43.551Z,5.40
2022-09-28T05:54:12.645Z,5.55
2022-09-28T05:56:45.701Z,6.32
2022-09-28T05:59:15.714Z,7.07
2022-09-28T06:01:44.847Z,6.97
2022-09-28T06:04:16.597Z,7.28
2022-09-28T06:06:47.131Z,6.90
2022-09-28T06:09:16.447Z,6.18
2022-09-28T06:12:04.833Z,5.72
2022-09-28T06:14:47.235Z,5.20
2022-09-28T06:17:17.038Z,5.55
2022-09-28T06:19:53.398Z,5.80
2022-09-28T06:22:35.083Z,4.90
2022-09-28T06:25:10.946Z,4.97
2022-09-28T06:27:42.754Z,3.90
2022-09-28T06:30:13.249Z,3.90
2022-09-28T06:32:43.203Z,4.18
2022-09-28T06:35:15.542Z,4.43
2022-09-28T06:37:46.810Z,3.55
2022-09-28T06:40:16.379Z,4.00
2022-09-28T06:42:46.047Z,4.53
2022-09-28T06:45:53.803Z,4.65
2022-09-28T06:48:41.860Z,5.88
2022-09-28T06:51:16.225Z,6.18
2022-09-28T06:53:56.940Z,14.15
2022-09-28T06:56:52.476Z,14.23
2022-09-28T06:59:22.354Z,9.27
2022-09-28T07:01:51.816Z,9.88
2022-09-28T07:04:27.217Z,9.80
2022-09-28T07:07:16.155Z,9.10
2022-09-28T07:10:10.498Z,11.48
2022-09-28T07:13:15.267Z,5.15
2022-09-28T07:15:56.942Z,4.55
2022-09-28T07:18:26.912Z,4.18
2022-09-28T07:20:58.181Z,4.60
2022-09-28T07:23:30.634Z,5.90
2022-09-28T07:26:35.452Z,4.63
2022-09-28T07:29:11.841Z,4.97
2022-09-28T07:31:54.193Z,17.30
2022-09-28T07:34:43.662Z,6.00
2022-09-28T07:37:37.431Z,5.90
2022-09-28T07:40:46.241Z,5.93
2022-09-28T07:43:20.656Z,5.00
2022-09-28T07:45:54.080Z,6.00
2022-09-28T07:48:24.288Z,5.43
2022-09-28T07:51:12.663Z,5.30
2022-09-28T07:53:44.715Z,5.43
2022-09-28T07:56:34.919Z,5.10
2022-09-28T07:59:26.882Z,5.15
2022-09-28T08:02:15.186Z,5.30
2022-09-28T08:04:45.025Z,6.28
2022-09-28T08:07:14.296Z,5.70
2022-09-28T08:09:43.694Z,6.43
2022-09-28T08:12:34.260Z,5.30
2022-09-28T08:15:37.293Z,4.68
2022-09-28T08:18:24.524Z,4.00
2022-09-28T08:21:12.040Z,4.35
2022-09-28T08:23:41.513Z,5.07
2022-09-28T08:26:14.712Z,4.47
2022-09-28T08:31:36.248Z,4.78
2022-09-28T08:34:38.364Z,4.90
2022-09-28T08:37:16.794Z,4.72
2022-09-28T08:40:05.282Z,4.68
2022-09-28T08:42:52.259Z,4.80
2022-09-28T08:45:49.734Z,4.25
2022-09-28T08:49:13.547Z,3.95
2022-09-28T08:52:09.052Z,4.57
2022-09-28T08:55:03.844Z,4.95
2022-09-28T08:57:46.182Z,5.45
2022-09-28T09:00:22.277Z,6.97
2022-09-28T09:02:53.321Z,4.97
2022-09-28T09:05:42.010Z,4.15
2022-09-28T09:08:25.967Z,3.92
2022-09-28T09:11:04.253Z,3.63
2022-09-28T09:14:09.172Z,4.28
2022-09-28T09:16:49.423Z,4.40
2022-09-28T09:20:00.359Z,4.55
2022-09-28T09:23:00.783Z,3.97
2022-09-28T09:25:38.513Z,3.38
2022-09-28T09:28:43.861Z,3.50
2022-09-28T09:31:27.662Z,3.35
2022-09-28T09:34:23.191Z,3.42
2022-09-28T09:37:06.672Z,2.97
2022-09-28T09:40:26.381Z,3.65
2022-09-28T09:43:22.624Z,3.55
2022-09-28T09:46:25.136Z,3.83
2022-09-28T09:49:08.022Z,3.42
2022-09-28T09:54:19.918Z,3.72
2022-09-28T09:56:54.854Z,4.07
2022-09-28T09:59:46.283Z,3.97
2022-09-28T10:02:28.066Z,3.85
2022-09-28T10:05:20.369Z,3.85
2022-09-28T10:07:55.993Z,4.15
2022-09-28T10:10:32.481Z,4.43
2022-09-28T10:13:13.612Z,4.60
2022-09-28T10:15:45.908Z,4.57
2022-09-28T10:18:22.298Z,4.88
2022-09-28T10:21:15.149Z,5.07
2022-09-28T10:23:58.935Z,4.68
2022-09-28T10:26:36.797Z,4.43
2022-09-28T10:29:14.810Z,3.97
2022-09-28T10:31:47.358Z,4.25
2022-09-28T10:34:32.454Z,4.03
2022-09-28T10:37:13.041Z,3.90
2022-09-28T10:40:30.294Z,3.67
2022-09-28T10:43:09.266Z,3.28
2022-09-28T10:45:39.967Z,3.40
2022-09-28T10:48:17.862Z,2.97
2022-09-28T10:51:01.255Z,3.55
2022-09-28T10:53:31.427Z,3.15
2022-09-28T10:56:22.701Z,3.40
2022-09-28T10:59:03.156Z,3.22
2022-09-28T11:01:45.543Z,2.55
2022-09-28T11:04:23.499Z,2.90
2022-09-28T11:09:32.796Z,2.78
2022-09-28T11:12:15.553Z,2.60
2022-09-28T11:14:52.868Z,2.75
2022-09-28T11:17:29.707Z,3.00
2022-09-28T11:20:00.930Z,2.72
2022-09-28T11:22:41.828Z,2.10
2022-09-28T11:25:24.747Z,2.10
2022-09-28T11:28:04.733Z,2.90
2022-09-28T11:30:41.826Z,1.98
2022-09-28T11:33:43.368Z,1.50
2022-09-28T11:37:07.608Z,1.73
2022-09-28T11:39:50.014Z,1.45
2022-09-28T11:42:32.665Z,1.40
2022-09-28T11:45:12.932Z,1.20
2022-09-28T11:47:54.114Z,1.20
2022-09-28T11:50:29.513Z,1.50
2022-09-28T11:53:18.027Z,0.93
2022-09-28T11:55:53.194Z,1.30
2022-09-28T11:58:30.929Z,1.45
2022-09-28T12:01:06.949Z,1.00
2022-09-28T12:04:01.344Z,1.30
2022-09-28T12:06:38.828Z,1.10
2022-09-28T12:09:17.081Z,1.10
2022-09-28T12:12:01.272Z,1.10
2022-09-28T12:14:46.843Z,1.10
2022-09-28T12:17:23.411Z,1.33
2022-09-28T12:19:59.547Z,1.20
2022-09-28T12:22:36.073Z,1.30
2022-09-28T12:25:12.157Z,1.40
2022-09-28T12:27:46.278Z,2.15
2022-09-28T12:30:20.189Z,1.40
2022-09-28T12:32:54.504Z,1.40
2022-09-28T12:35:37.271Z,1.40
2022-09-28T12:38:32.073Z,1.40
2022-09-28T12:41:17.080Z,1.10
2022-09-28T12:44:00.611Z,1.10
2022-09-28T12:46:49.015Z,1.10
2022-09-28T12:55:21.036Z,1.50
2022-09-28T12:58:00.827Z,1.98
2022-09-28T13:00:40.082Z,1.42
2022-09-28T13:03:36.987Z,1.50
2022-09-28T13:06:37.592Z,2.20
2022-09-28T13:09:23.794Z,1.67
2022-09-28T13:12:13.224Z,1.30
2022-09-28T13:15:06.831Z,1.48
2022-09-28T13:17:53.427Z,1.70
2022-09-28T13:20:44.613Z,1.30
2022-09-28T13:23:20.632Z,1.10
2022-09-28T13:25:57.281Z,2.35
2022-09-28T13:28:28.554Z,1.85
2022-09-28T13:33:40.641Z,1.40
2022-09-28T13:36:38.980Z,1.30
2022-09-28T13:39:48.761Z,1.30
2022-09-28T13:43:00.386Z,1.50
2022-09-28T13:45:41.920Z,1.08
2022-09-28T13:48:20.876Z,1.20
2022-09-28T13:51:17.400Z,1.38
2022-09-28T13:54:04.351Z,1.33
2022-09-28T13:56:43.680Z,1.10
2022-09-28T13:59:23.305Z,1.00
2022-09-28T14:01:58.148Z,0.98
2022-09-28T14:04:55.642Z,1.15
2022-09-28T14:10:21.130Z,1.00
2022-09-28T14:12:51.561Z,1.50
2022-09-28T14:15:44.095Z,1.40
2022-09-28T14:18:25.480Z,1.95
2022-09-28T14:21:37.345Z,1.90
2022-09-28T14:24:17.406Z,2.00
2022-09-28T14:27:29.095Z,1.55
2022-09-28T14:30:17.828Z,2.67
2022-09-28T14:32:56.280Z,2.10
2022-09-28T14:35:35.029Z,2.17
2022-09-28T14:38:32.184Z,2.40
2022-09-28T14:41:10.664Z,9.57
2022-09-28T14:44:03.971Z,6.38
2022-09-28T14:46:44.396Z,4.05
2022-09-28T14:50:00.708Z,5.07
2022-09-28T14:52:47.754Z,3.80
2022-09-28T14:55:20.401Z,5.43
2022-09-28T14:57:56.886Z,2.28
2022-09-28T15:00:29.494Z,5.13
2022-09-28T15:03:02.326Z,4.45
2022-09-28T15:05:43.909Z,3.47
2022-09-28T15:08:13.933Z,2.65
2022-09-28T15:10:48.134Z,1.88
2022-09-28T15:13:23.577Z,1.80
2022-09-28T15:18:49.081Z,1.92
2022-09-28T15:21:20.680Z,1.98
2022-09-28T15:23:49.926Z,2.50
2022-09-28T15:26:27.619Z,2.25
2022-09-28T15:28:57.044Z,5.93
2022-09-28T15:31:28.497Z,6.90
2022-09-28T15:34:14.937Z,5.45
2022-09-28T15:36:47.242Z,5.00
2022-09-28T15:39:19.762Z,5.28
2022-09-28T15:41:51.618Z,2.67
2022-09-28T15:44:33.081Z,2.10
2022-09-28T15:47:11.020Z,3.63
2022-09-28T15:49:45.052Z,4.00
2022-09-28T15:52:29.150Z,3.90
2022-09-28T15:55:01.092Z,3.15
2022-09-28T15:57:41.279Z,2.92
2022-09-28T16:00:27.799Z,2.95
2022-09-28T16:03:02.178Z,2.83
2022-09-28T16:05:43.017Z,4.47
2022-09-28T16:08:21.501Z,3.22
2022-09-28T16:11:05.251Z,5.15
2022-09-28T16:13:35.181Z,3.90
2022-09-28T16:16:04.409Z,4.13
2022-09-28T16:18:39.406Z,3.70
2022-09-28T16:21:31.620Z,3.75
2022-09-28T16:24:02.476Z,4.03
2022-09-28T16:26:35.551Z,4.30
2022-09-28T16:29:10.897Z,3.50
2022-09-28T16:31:43.273Z,3.92
2022-09-28T16:34:21.175Z,3.92
2022-09-28T16:36:51.760Z,4.32
2022-09-28T16:39:22.187Z,6.10
2022-09-28T16:41:55.430Z,10.15
2022-09-28T16:44:28.516Z,13.02
2022-09-28T16:47:00.985Z,10.10
2022-09-28T16:49:32.290Z,9.75
2022-09-28T16:52:02.500Z,11.75
2022-09-28T16:54:51.622Z,11.55
2022-09-28T16:57:20.924Z,11.45
2022-09-28T16:59:49.927Z,11.95
2022-09-28T17:02:46.178Z,11.07
2022-09-28T17:05:14.938Z,12.57
2022-09-28T17:07:45.923Z,16.13
2022-09-28T17:10:28.266Z,13.70
2022-09-28T17:12:57.441Z,14.60
2022-09-28T17:15:26.916Z,16.17
2022-09-28T17:17:56.507Z,20.45
2022-09-28T17:20:28.677Z,19.85
2022-09-28T17:22:58.180Z,21.10
2022-09-28T17:25:29.090Z,20.08
2022-09-28T17:27:59.616Z,21.98
2022-09-28T17:30:29.023Z,21.98
2022-09-28T17:33:01.626Z,20.70
2022-09-28T17:35:30.994Z,20.88
2022-09-28T17:38:00.587Z,21.10
2022-09-28T17:40:31.847Z,20.42
2022-09-28T17:43:01.370Z,19.77
2022-09-28T17:45:32.103Z,20.25
2022-09-28T17:48:01.890Z,19.40
2022-09-28T17:50:34.461Z,19.50
2022-09-28T17:53:06.267Z,21.60
2022-09-28T17:55:40.880Z,18.35
2022-09-28T17:58:17.729Z,18.83
2022-09-28T18:00:49.142Z,18.27
2022-09-28T18:03:20.433Z,17.13
2022-09-28T18:05:59.363Z,17.30
2022-09-28T18:08:28.398Z,17.45
2022-09-28T18:10:59.227Z,15.40
2022-09-28T18:13:28.576Z,16.63
2022-09-28T18:15:58.480Z,15.20
2022-09-28T18:18:27.935Z,16.65
2022-09-28T18:20:57.155Z,23.85
2022-09-28T18:23:26.238Z,23.02
2022-09-28T18:25:55.808Z,18.52
2022-09-28T18:28:29.152Z,18.50
2022-09-28T18:30:58.566Z,18.20
2022-09-28T18:33:27.939Z,16.13
2022-09-28T18:35:57.614Z,15.02
2022-09-28T18:38:26.890Z,17.23
2022-09-28T18:40:56.605Z,15.02
2022-09-28T18:43:26.164Z,13.18
2022-09-28T18:45:57.009Z,11.68
2022-09-28T18:48:28.052Z,10.70
2022-09-28T18:50:57.695Z,12.07
2022-09-28T18:53:26.971Z,12.82
2022-09-28T18:55:57.756Z,13.27
2022-09-28T18:58:27.880Z,11.45
2022-09-28T19:01:18.730Z,12.73
2022-09-28T19:03:47.829Z,14.00
2022-09-28T19:06:18.166Z,12.52
2022-09-28T19:08:52.259Z,11.35
2022-09-28T19:11:25.328Z,13.57
2022-09-28T19:13:55.951Z,12.98
2022-09-28T19:16:29.199Z,14.95
2022-09-28T19:18:58.974Z,12.85
2022-09-28T19:21:28.206Z,12.80
2022-09-28T19:23:57.685Z,12.85
2022-09-28T19:26:28.228Z,13.68
2022-09-28T19:29:00.375Z,13.20
2022-09-28T19:31:31.366Z,14.05
2022-09-28T19:34:00.734Z,13.15
2022-09-28T19:36:30.490Z,11.57
2022-09-28T19:39:02.906Z,14.25
2022-09-28T19:41:44.532Z,13.48
2022-09-28T19:44:24.745Z,10.88
2022-09-28T19:46:58.162Z,13.05
2022-09-28T19:49:33.104Z,12.15
2022-09-28T19:52:18.462Z,12.55
2022-09-28T19:54:52.126Z,12.43
2022-09-28T19:57:21.409Z,12.60
2022-09-28T19:59:52.698Z,13.70
2022-09-28T20:02:24.129Z,14.15
2022-09-28T20:04:53.246Z,13.18
2022-09-28T20:07:22.926Z,13.98
2022-09-28T20:09:52.090Z,14.52
2022-09-28T20:12:21.209Z,16.73
2022-09-28T20:14:50.153Z,16.83
2022-09-28T20:17:22.051Z,14.73
2022-09-28T20:19:52.740Z,14.85
2022-09-28T20:22:22.316Z,16.35
2022-09-28T20:24:51.319Z,16.25
2022-09-28T20:27:23.187Z,15.80
2022-09-28T20:29:55.436Z,20.10
2022-09-28T20:32:24.840Z,14.45
2022-09-28T20:34:55.298Z,16.45
2022-09-28T20:37:25.610Z,14.68
2022-09-28T20:39:55.470Z,16.30
2022-09-28T20:42:24.590Z,15.05
2022-09-28T20:44:54.278Z,17.58
2022-09-28T20:47:23.319Z,16.42
2022-09-28T20:49:52.284Z,16.27
2022-09-28T20:52:23.198Z,16.85
2022-09-28T20:54:52.352Z,14.80
2022-09-28T20:57:21.416Z,17.92
2022-09-28T20:59:54.591Z,17.67
2022-09-28T21:02:24.136Z,15.80
2022-09-28T21:04:54.166Z,17.17
2022-09-28T21:07:24.698Z,23.52
2022-09-28T21:09:54.427Z,18.85
2022-09-28T21:12:26.040Z,19.00
2022-09-28T21:14:55.338Z,19.95
2022-09-28T21:17:24.314Z,18.73
2022-09-28T21:19:53.198Z,18.00
2022-09-28T21:22:23.911Z,18.20
2022-09-28T21:24:53.143Z,18.10
2022-09-28T21:27:22.197Z,17.23
2022-09-28T21:29:51.363Z,15.20
2022-09-28T21:32:20.538Z,17.02
2022-09-28T21:34:50.524Z,15.82
2022-09-28T21:37:19.814Z,15.38
2022-09-28T21:39:50.147Z,15.05
2022-09-28T21:42:19.229Z,16.38
2022-09-28T21:44:48.324Z,16.17
2022-09-28T21:47:17.360Z,14.43
2022-09-28T21:49:46.233Z,14.15
2022-09-28T21:52:15.350Z,15.32
2022-09-28T21:54:44.329Z,15.02
2022-09-28T21:57:14.711Z,14.50
2022-09-28T21:59:43.829Z,14.07
2022-09-28T22:02:13.651Z,14.32
2022-09-28T22:04:42.653Z,14.52
2022-09-28T22:07:12.223Z,15.30
2022-09-28T22:09:41.258Z,15.93
2022-09-28T22:12:10.751Z,15.85
2022-09-28T22:14:41.472Z,16.27
2022-09-28T22:17:10.688Z,15.57
2022-09-28T22:19:40.461Z,16.55
2022-09-28T22:22:09.942Z,15.30
2022-09-28T22:24:39.023Z,15.65
2022-09-28T22:27:08.256Z,15.32
2022-09-28T22:29:37.505Z,16.17
2022-09-28T22:32:08.080Z,14.02
2022-09-28T22:34:37.535Z,14.13
2022-09-28T22:37:06.814Z,13.32
2022-09-28T22:39:37.864Z,15.40
2022-09-28T22:42:07.458Z,14.23
2022-09-28T22:44:37.822Z,14.18
2022-09-28T22:47:08.612Z,14.10
2022-09-28T22:49:37.845Z,13.25
2022-09-28T22:52:06.817Z,12.38
2022-09-28T22:54:35.903Z,14.20
2022-09-28T22:57:05.294Z,13.82
2022-09-28T22:59:34.415Z,12.15
2022-09-28T23:02:03.715Z,11.57
2022-09-28T23:04:34.525Z,11.98
2022-09-28T23:07:03.754Z,12.80
2022-09-28T23:09:33.264Z,11.82
2022-09-28T23:12:02.630Z,13.23
2022-09-28T23:14:31.585Z,12.63
2022-09-28T23:17:01.131Z,12.30
2022-09-28T23:19:30.241Z,11.60
2022-09-28T23:22:00.678Z,11.68
2022-09-28T23:24:30.000Z,11.73
2022-09-28T23:26:59.154Z,11.10
2022-09-28T23:29:28.305Z,11.20
2022-09-28T23:31:57.496Z,11.40
2022-09-28T23:34:26.488Z,10.15
2022-09-28T23:36:56.856Z,10.40
2022-09-28T23:39:27.448Z,11.00
2022-09-28T23:41:57.866Z,10.75
2022-09-28T23:44:28.153Z,9.32
2022-09-28T23:46:57.709Z,9.02
2022-09-28T23:49:26.787Z,8.57
2022-09-28T23:51:56.143Z,9.52
2022-09-28T23:54:26.496Z,9.55
2022-09-28T23:56:55.662Z,9.80
2022-09-28T23:59:24.948Z,10.18
